Time;durP1;ratioP1;P1;durP2;ratioP2;P2;SDS_P1;SDS_P2;PMS_P1;PMS_P2;Temp;Humidity;BMP_temperature;BMP_pressure;BME280_temperature;BME280_humidity;BME280_pressure;Samples;Min_cycle;Max_cycle;Signal;HPM_P1;HPM_P2
2022/01/01 00:00:08;;;;;;;74.65;32.58;;;;;;;12.54;100.00;102004.00;5018213;28;20619;-80
2022/01/01 00:02:35;;;;;;;119.88;53.53;;;;;;;12.50;100.00;101996.97;5013788;28;20034;-79
2022/01/01 00:05:00;;;;;;;82.53;34.80;;;;;;;12.53;100.00;102004.09;5004832;28;20061;-80
2022/01/01 00:07:26;;;;;;;66.43;24.73;;;;;;;12.53;100.00;102002.25;5028040;28;20042;-80
2022/01/01 00:09:51;;;;;;;80.60;29.23;;;;;;;12.54;100.00;102009.50;5000637;28;20042;-80
2022/01/01 00:12:18;;;;;;;77.13;26.75;;;;;;;12.57;100.00;102011.16;5007970;28;20030;-79
2022/01/01 00:14:44;;;;;;;61.53;20.52;;;;;;;12.50;100.00;102010.72;5019409;28;20474;-79
2022/01/01 00:17:09;;;;;;;48.58;14.73;;;;;;;12.41;100.00;101984.75;5008267;28;20098;-79
2022/01/01 00:19:35;;;;;;;40.90;12.70;;;;;;;12.57;100.00;102009.28;5012473;28;20401;-81
2022/01/01 00:22:03;;;;;;;49.05;15.40;;;;;;;12.56;100.00;102009.38;5017824;28;20053;-80
2022/01/01 00:24:30;;;;;;;45.78;14.50;;;;;;;12.54;100.00;102014.97;5003085;28;20030;-81
2022/01/01 00:26:55;;;;;;;52.83;14.85;;;;;;;12.47;100.00;102009.03;5016255;28;20057;-80
2022/01/01 00:29:21;;;;;;;49.88;13.82;;;;;;;12.51;100.00;102015.22;5003487;28;20073;-81
2022/01/01 00:31:47;;;;;;;48.80;13.52;;;;;;;12.46;100.00;102014.63;5020090;28;20030;-81
2022/01/01 00:34:12;;;;;;;48.17;12.82;;;;;;;12.54;100.00;102019.59;4999803;28;20114;-81
2022/01/01 00:36:38;;;;;;;50.30;14.43;;;;;;;12.49;100.00;102025.41;5014536;28;20018;-81
2022/01/01 00:39:04;;;;;;;48.60;13.88;;;;;;;12.46;100.00;102020.13;5005221;28;20034;-81
2022/01/01 00:41:32;;;;;;;55.53;12.95;;;;;;;12.44;100.00;102019.34;5003795;28;20062;-81
2022/01/01 00:43:58;;;;;;;50.40;13.07;;;;;;;12.43;100.00;102029.47;5003300;28;20118;-82
2022/01/01 00:46:23;;;;;;;56.03;13.38;;;;;;;12.35;100.00;102015.38;4986969;28;20417;-82
2022/01/01 00:48:53;;;;;;;56.13;14.55;;;;;;;12.45;100.00;102027.50;5013489;28;20040;-82
2022/01/01 00:51:19;;;;;;;43.17;12.20;;;;;;;12.40;100.00;102001.34;5004935;28;20525;-82
2022/01/01 00:53:45;;;;;;;55.25;13.20;;;;;;;12.50;100.00;102022.56;5007466;28;20153;-82
2022/01/01 00:56:10;;;;;;;49.88;14.32;;;;;;;12.44;100.00;102000.13;5019755;28;20098;-82
2022/01/01 00:58:36;;;;;;;55.22;13.80;;;;;;;12.43;100.00;102007.50;5020620;28;20089;-82
2022/01/01 01:01:01;;;;;;;60.80;14.70;;;;;;;12.41;100.00;102014.06;5024115;28;20042;-82
2022/01/01 01:03:27;;;;;;;58.00;13.75;;;;;;;12.47;100.00;102019.16;5014179;28;20057;-82
2022/01/01 01:05:53;;;;;;;56.97;14.88;;;;;;;12.40;100.00;102010.44;5020376;28;20026;-82
2022/01/01 01:08:18;;;;;;;49.42;14.13;;;;;;;12.41;100.00;102023.22;5028490;28;20413;-82
2022/01/01 01:10:46;;;;;;;48.70;15.70;;;;;;;12.49;100.00;102026.31;5019753;28;20049;-82
2022/01/01 01:13:15;;;;;;;54.25;15.32;;;;;;;12.47;100.00;102022.78;5006062;28;20030;-82
2022/01/01 01:15:41;;;;;;;52.70;14.38;;;;;;;12.48;100.00;102031.91;5005528;28;20035;-82
2022/01/01 01:18:07;;;;;;;49.25;13.52;;;;;;;12.40;100.00;102032.44;5000780;28;20080;-81
2022/01/01 01:20:33;;;;;;;57.63;15.07;;;;;;;12.43;100.00;102036.81;5004895;28;20030;-82
2022/01/01 01:22:59;;;;;;;58.47;15.25;;;;;;;12.45;100.00;102045.84;5017689;28;20043;-82
2022/01/01 01:25:28;;;;;;;61.42;15.65;;;;;;;12.39;100.00;102043.50;5003892;28;20069;-82
2022/01/01 01:27:54;;;;;;;44.47;14.80;;;;;;;12.42;100.00;102037.81;5008404;28;20035;-82
2022/01/01 01:30:22;;;;;;;54.35;14.27;;;;;;;12.43;100.00;102048.72;4990123;28;20022;-82
2022/01/01 01:32:47;;;;;;;47.33;12.73;;;;;;;12.41;100.00;102036.03;5019153;28;20029;-82
2022/01/01 01:35:13;;;;;;;54.53;13.43;;;;;;;12.45;100.00;102045.84;5005604;28;20097;-82
2022/01/01 01:37:39;;;;;;;51.05;14.38;;;;;;;12.39;100.00;102052.63;5001389;28;20152;-82
2022/01/01 01:40:07;;;;;;;50.25;13.85;;;;;;;12.38;100.00;102050.88;5003694;28;20049;-82
2022/01/01 01:42:34;;;;;;;54.80;13.65;;;;;;;12.39;100.00;102052.63;4994121;28;20046;-82
2022/01/01 01:45:01;;;;;;;53.10;13.90;;;;;;;12.32;100.00;102049.41;5002357;28;20041;-82
2022/01/01 01:47:29;;;;;;;50.03;13.75;;;;;;;12.32;100.00;102043.94;5019099;28;20153;-82
2022/01/01 01:49:56;;;;;;;57.78;13.98;;;;;;;12.28;100.00;102039.63;4989823;28;20053;-81
2022/01/01 01:52:23;;;;;;;60.60;13.98;;;;;;;12.38;100.00;102048.13;4998976;28;20073;-81
2022/01/01 01:54:49;;;;;;;61.63;14.65;;;;;;;12.35;100.00;102047.44;4986022;28;20088;-81
2022/01/01 01:57:15;;;;;;;48.95;13.98;;;;;;;12.31;100.00;102057.75;5001561;28;20466;-82
2022/01/01 01:59:41;;;;;;;42.88;13.65;;;;;;;12.28;100.00;102058.88;5027875;28;20109;-81
2022/01/01 02:02:07;;;;;;;45.45;13.13;;;;;;;12.35;100.00;102059.34;5004526;28;20102;-81
2022/01/01 02:04:33;;;;;;;44.85;13.20;;;;;;;12.39;100.00;102063.63;5006940;28;20034;-81
2022/01/01 02:07:00;;;;;;;41.17;12.43;;;;;;;12.39;100.00;102065.50;5023034;28;20025;-81
2022/01/01 02:09:26;;;;;;;51.95;12.65;;;;;;;12.41;100.00;102066.25;4995896;28;20037;-81
2022/01/01 02:11:53;;;;;;;44.22;11.85;;;;;;;12.40;100.00;102070.00;5014685;28;20030;-81
2022/01/01 02:14:34;;;;;;;43.88;11.73;;;;;;;12.39;100.00;102062.75;5021908;28;20029;-81
2022/01/01 02:19:27;;;;;;;41.75;12.52;;;;;;;12.38;100.00;102063.72;5023035;28;20076;-82
2022/01/01 02:21:56;;;;;;;47.63;12.52;;;;;;;12.36;100.00;102060.19;5018720;28;20062;-82
2022/01/01 02:24:21;;;;;;;52.15;13.60;;;;;;;12.34;100.00;102051.19;5003255;28;20397;-81
2022/01/01 02:26:47;;;;;;;42.20;11.50;;;;;;;12.40;100.00;102051.66;5017164;28;20033;-81
2022/01/01 02:29:13;;;;;;;37.72;11.65;;;;;;;12.36;100.00;102049.22;5024242;28;20117;-81
2022/01/01 02:31:38;;;;;;;57.70;13.55;;;;;;;12.32;100.00;102049.41;5010322;28;20036;-81
2022/01/01 02:34:09;;;;;;;41.45;12.18;;;;;;;12.34;100.00;102046.56;5022046;28;20045;-80
2022/01/01 02:36:37;;;;;;;41.30;12.07;;;;;;;12.32;100.00;102040.31;5009928;28;20049;-81
2022/01/01 02:39:17;;;;;;;54.13;13.43;;;;;;;12.33;100.00;102053.06;5018463;28;20068;-81
2022/01/01 02:41:45;;;;;;;49.33;12.32;;;;;;;12.23;100.00;102046.41;5004221;28;20042;-82
2022/01/01 02:44:11;;;;;;;49.45;13.13;;;;;;;12.24;100.00;102043.56;4988283;28;20034;-81
2022/01/01 02:46:37;;;;;;;42.28;13.48;;;;;;;12.30;100.00;102053.28;5003416;28;20045;-81
2022/01/01 02:49:04;;;;;;;52.95;12.60;;;;;;;12.23;100.00;102054.66;5003611;28;20026;-81
2022/01/01 02:51:30;;;;;;;39.80;14.10;;;;;;;12.27;100.00;102054.34;5007101;28;20036;-81
2022/01/01 02:53:56;;;;;;;44.97;14.57;;;;;;;12.24;100.00;102039.94;5010175;28;20030;-81
2022/01/01 02:56:21;;;;;;;55.95;15.85;;;;;;;12.27;100.00;102050.72;5014032;28;20485;-81
2022/01/01 02:58:48;;;;;;;53.75;15.60;;;;;;;12.23;100.00;102040.91;5022115;28;20033;-82
2022/01/01 03:01:13;;;;;;;52.17;17.10;;;;;;;12.28;100.00;102045.13;5019072;28;20094;-81
2022/01/01 03:03:39;;;;;;;48.95;19.40;;;;;;;12.21;100.00;102049.25;5024842;28;20034;-82
2022/01/01 03:06:04;;;;;;;73.00;22.02;;;;;;;12.25;100.00;102047.22;5005851;28;20014;-82
2022/01/01 03:08:30;;;;;;;66.95;21.20;;;;;;;12.20;100.00;102046.59;5003091;28;20030;-82
2022/01/01 03:10:55;;;;;;;68.63;23.38;;;;;;;12.28;100.00;102044.22;4990961;28;20096;-82
2022/01/01 03:13:21;;;;;;;67.72;24.65;;;;;;;12.23;100.00;102029.94;4993991;28;20030;-82
2022/01/01 03:15:46;;;;;;;70.95;25.75;;;;;;;12.24;100.00;102045.44;5016342;28;20034;-82
2022/01/01 03:18:12;;;;;;;66.57;25.83;;;;;;;12.15;100.00;102014.00;5006626;28;20041;-82
2022/01/01 03:20:38;;;;;;;68.22;26.70;;;;;;;12.29;100.00;102035.03;5010391;28;20026;-82
2022/01/01 03:23:04;;;;;;;72.65;27.20;;;;;;;12.29;100.00;102033.16;4992651;28;20048;-82
2022/01/01 03:25:29;;;;;;;75.47;25.65;;;;;;;12.27;100.00;102026.88;5016389;28;20088;-82
2022/01/01 03:27:55;;;;;;;88.50;29.52;;;;;;;12.24;100.00;102024.34;5027665;28;20042;-82
2022/01/01 03:30:20;;;;;;;71.85;25.50;;;;;;;12.24;100.00;102024.34;5007707;28;20516;-82
2022/01/01 03:32:46;;;;;;;67.30;24.08;;;;;;;12.24;100.00;102031.72;5011206;28;20028;-82
2022/01/01 03:35:11;;;;;;;67.60;21.40;;;;;;;12.27;100.00;102024.13;5028543;28;20034;-81
2022/01/01 03:37:37;;;;;;;50.22;18.63;;;;;;;12.27;100.00;102032.38;5008727;28;20054;-81
2022/01/01 03:40:04;;;;;;;47.42;17.90;;;;;;;12.27;100.00;102026.00;5022039;28;20042;-81
2022/01/01 03:42:30;;;;;;;48.88;16.27;;;;;;;12.21;100.00;102016.31;5024285;28;20041;-81
2022/01/01 03:44:56;;;;;;;43.58;15.65;;;;;;;12.23;100.00;102019.84;5026822;28;20034;-81
2022/01/01 03:47:21;;;;;;;39.92;14.40;;;;;;;12.24;100.00;102024.34;5026256;28;20071;-81
2022/01/01 03:49:47;;;;;;;51.70;15.85;;;;;;;12.26;100.00;102022.38;5024795;28;20716;-81
2022/01/01 03:52:12;;;;;;;43.83;14.57;;;;;;;12.28;100.00;102009.44;5022302;28;20121;-81
2022/01/01 03:54:38;;;;;;;37.45;12.90;;;;;;;12.27;100.00;102010.41;5021262;28;20093;-81
2022/01/01 03:57:04;;;;;;;37.53;12.02;;;;;;;12.23;100.00;102016.19;5024575;28;20094;-82
2022/01/01 03:59:29;;;;;;;38.50;13.18;;;;;;;12.29;100.00;102013.91;5010194;28;20046;-82
2022/01/01 04:01:55;;;;;;;44.67;13.55;;;;;;;12.28;100.00;102011.28;5021162;28;20049;-81
2022/01/01 04:04:22;;;;;;;40.15;11.95;;;;;;;12.24;100.00;102010.59;5004353;28;20068;-82
2022/01/01 04:06:48;;;;;;;35.75;13.32;;;;;;;12.22;100.00;102020.81;5016389;28;20029;-82
2022/01/01 04:09:14;;;;;;;37.58;11.98;;;;;;;12.20;100.00;102009.06;5021163;28;20030;-82
2022/01/01 04:11:40;;;;;;;38.67;12.00;;;;;;;12.22;100.00;102012.59;5007779;28;20020;-81
2022/01/01 04:14:10;;;;;;;40.03;12.27;;;;;;;12.19;100.00;102012.78;5006203;28;20088;-81
2022/01/01 04:16:36;;;;;;;34.17;11.52;;;;;;;12.21;100.00;102010.81;5010739;28;20105;-82
2022/01/01 04:19:01;;;;;;;36.40;11.70;;;;;;;12.18;100.00;102008.28;5022753;28;20088;-83
2022/01/01 04:21:27;;;;;;;37.17;11.00;;;;;;;12.19;100.00;102004.56;5006954;28;20570;-81
2022/01/01 04:23:53;;;;;;;58.33;12.50;;;;;;;12.18;100.00;101994.53;5009188;28;20176;-81
2022/01/01 04:26:18;;;;;;;44.17;11.85;;;;;;;12.18;100.00;102002.78;5009790;28;20037;-83
2022/01/01 04:28:44;;;;;;;29.60;11.40;;;;;;;12.17;100.00;102009.28;5008884;28;20114;-81
2022/01/01 04:31:10;;;;;;;34.80;11.60;;;;;;;12.15;100.00;102000.28;5024138;28;20069;-82
2022/01/01 04:33:36;;;;;;;41.25;11.40;;;;;;;12.17;100.00;102006.53;5022164;28;20136;-82
2022/01/01 04:36:02;;;;;;;34.00;11.13;;;;;;;12.17;100.00;102003.78;5025715;28;20592;-82
2022/01/01 04:38:39;;;;;;;41.60;10.55;;;;;;;12.11;100.00;101987.72;5007124;28;20038;-82
2022/01/01 04:41:14;;;;;;;38.97;11.60;;;;;;;12.12;100.00;102004.09;5012374;28;20045;-82
2022/01/01 04:43:40;;;;;;;37.75;11.48;;;;;;;12.09;100.00;102015.28;5006552;28;20049;-82
2022/01/01 04:46:07;;;;;;;35.40;10.88;;;;;;;12.07;100.00;102016.38;5007346;28;20017;-82
2022/01/01 04:48:37;;;;;;;35.08;10.85;;;;;;;12.13;100.00;102027.81;5023359;28;20034;-82
2022/01/01 04:51:07;;;;;;;32.30;11.32;;;;;;;12.09;100.00;102020.75;5022015;28;20026;-82
2022/01/01 04:53:39;;;;;;;32.90;11.50;;;;;;;12.13;100.00;102029.66;5023629;28;20037;-82
2022/01/01 04:56:07;;;;;;;29.87;10.57;;;;;;;12.06;100.00;102022.84;5009674;28;20039;-81
2022/01/01 04:58:33;;;;;;;33.05;10.65;;;;;;;12.03;100.00;102023.91;5023109;28;20086;-82
2022/01/01 05:00:58;;;;;;;36.55;11.10;;;;;;;11.99;100.00;102032.47;4998086;28;20034;-81
2022/01/01 05:03:24;;;;;;;35.28;11.23;;;;;;;12.02;100.00;102033.16;5008540;28;20521;-82
2022/01/01 05:05:49;;;;;;;39.05;11.10;;;;;;;12.01;100.00;102028.63;5003482;28;20030;-82
2022/01/01 05:08:15;;;;;;;36.53;9.93;;;;;;;12.06;100.00;102028.31;5007196;28;20088;-81
2022/01/01 05:10:40;;;;;;;37.22;12.55;;;;;;;12.02;100.00;102030.41;5004138;28;20034;-81
2022/01/01 05:13:06;;;;;;;37.63;11.00;;;;;;;12.04;100.00;102022.06;5014838;28;20097;-82
2022/01/01 05:15:31;;;;;;;35.17;10.80;;;;;;;12.08;100.00;102031.84;5012193;28;20027;-82
2022/01/01 05:17:57;;;;;;;22.63;10.32;;;;;;;12.08;100.00;102029.09;5004245;28;20108;-82
2022/01/01 05:20:22;;;;;;;31.67;11.10;;;;;;;12.00;100.00;102009.50;4986704;28;20041;-81
2022/01/01 05:22:48;;;;;;;29.75;10.55;;;;;;;12.07;100.00;102027.34;5007431;28;20033;-81
2022/01/01 05:25:13;;;;;;;36.95;11.65;;;;;;;12.07;100.00;102025.47;5018107;28;20556;-81
2022/01/01 05:27:40;;;;;;;34.63;10.38;;;;;;;12.09;100.00;102036.38;5021317;28;20037;-81
2022/01/01 05:30:07;;;;;;;38.90;11.10;;;;;;;12.10;100.00;102028.03;5007117;28;20025;-82
2022/01/01 05:32:33;;;;;;;33.00;11.32;;;;;;;12.08;100.00;102024.47;5009946;28;20057;-82
2022/01/01 05:34:59;;;;;;;37.47;12.00;;;;;;;12.04;100.00;102022.94;5015815;28;20023;-82
2022/01/01 05:37:25;;;;;;;36.92;11.57;;;;;;;12.19;100.00;102036.63;5004400;28;20022;-82
2022/01/01 05:39:50;;;;;;;36.72;12.52;;;;;;;12.16;100.00;102028.59;5003667;28;20482;-82
2022/01/01 05:42:16;;;;;;;36.80;11.63;;;;;;;12.17;100.00;102035.81;5020062;28;20056;-82
2022/01/01 05:44:42;;;;;;;29.25;11.07;;;;;;;12.14;100.00;102034.19;5000173;28;20030;-82
2022/01/01 05:47:07;;;;;;;36.78;12.40;;;;;;;12.11;100.00;102039.88;4986645;28;20023;-80
2022/01/01 05:49:32;;;;;;;39.97;12.27;;;;;;;12.12;100.00;102041.66;5012827;28;20064;-80
2022/01/01 05:51:58;;;;;;;36.53;11.95;;;;;;;12.10;100.00;102038.09;5013892;28;20048;-80
2022/01/01 05:54:23;;;;;;;38.30;11.93;;;;;;;12.14;100.00;102039.69;5008250;28;20056;-80
2022/01/01 05:56:49;;;;;;;33.30;11.65;;;;;;;12.12;100.00;102031.53;5020687;28;20041;-80
2022/01/01 05:59:15;;;;;;;33.65;11.02;;;;;;;12.13;100.00;102030.56;5003105;28;20485;-80
2022/01/01 06:01:40;;;;;;;41.58;12.40;;;;;;;12.09;100.00;102034.50;5017810;28;20057;-81
2022/01/01 06:04:05;;;;;;;38.67;12.07;;;;;;;12.08;100.00;102035.47;5004875;28;20026;-81
2022/01/01 06:06:31;;;;;;;32.15;11.95;;;;;;;12.05;100.00;102040.28;5003916;28;20038;-81
2022/01/01 06:08:56;;;;;;;49.47;13.68;;;;;;;12.06;100.00;102036.56;4995293;28;20026;-81
2022/01/01 06:11:22;;;;;;;35.33;11.48;;;;;;;12.06;100.00;102047.53;5020782;28;20057;-81
2022/01/01 06:13:47;;;;;;;32.20;10.95;;;;;;;12.05;100.00;102043.03;4996469;28;20060;-81
2022/01/01 06:16:13;;;;;;;35.45;10.70;;;;;;;12.09;100.00;102044.59;5001992;28;20410;-81
2022/01/01 06:18:38;;;;;;;31.15;10.65;;;;;;;12.06;100.00;102042.06;5017034;28;20037;-80
2022/01/01 06:21:04;;;;;;;35.78;11.05;;;;;;;12.06;100.00;102039.31;5020986;28;20105;-80
2022/01/01 06:23:31;;;;;;;27.92;10.13;;;;;;;12.02;100.00;102037.72;5021607;28;20021;-80
2022/01/01 06:25:56;;;;;;;33.53;11.05;;;;;;;12.01;100.00;102036.00;5017626;28;20049;-80
2022/01/01 06:28:22;;;;;;;40.80;11.15;;;;;;;12.04;100.00;102039.41;4988103;28;20043;-81
2022/01/01 06:30:47;;;;;;;28.63;9.43;;;;;;;12.09;100.00;102037.22;4987217;28;20117;-81
2022/01/01 06:33:15;;;;;;;39.38;10.38;;;;;;;12.03;100.00;102028.53;4996110;28;20022;-81
2022/01/01 06:35:42;;;;;;;31.73;8.55;;;;;;;12.02;100.00;102030.41;5023495;28;20053;-81
2022/01/01 06:38:08;;;;;;;35.33;10.32;;;;;;;12.00;100.00;102021.38;5010459;28;20430;-81
2022/01/01 06:40:35;;;;;;;24.50;9.05;;;;;;;12.02;100.00;102030.41;5021325;28;20025;-80
2022/01/01 06:43:01;;;;;;;29.83;8.88;;;;;;;11.97;100.00;102032.56;5024382;28;20495;-81
2022/01/01 06:45:27;;;;;;;29.05;8.25;;;;;;;12.03;100.00;102039.50;5026959;28;20080;-80
2022/01/01 06:47:52;;;;;;;35.38;7.90;;;;;;;12.08;100.00;102051.06;5016396;28;20482;-80
2022/01/01 06:50:18;;;;;;;24.85;8.20;;;;;;;12.03;100.00;102047.75;5022242;28;20032;-80
2022/01/01 06:52:45;;;;;;;22.55;7.13;;;;;;;12.04;100.00;102057.75;5020369;28;20042;-81
2022/01/01 06:55:12;;;;;;;33.40;7.93;;;;;;;12.03;100.00;102050.50;5025524;28;20086;-81
2022/01/01 06:57:39;;;;;;;29.17;7.88;;;;;;;12.00;100.00;102057.03;5015628;28;20048;-81
2022/01/01 07:00:05;;;;;;;28.13;7.53;;;;;;;12.02;100.00;102051.47;5033077;28;20038;-79
2022/01/01 07:02:31;;;;;;;24.70;6.78;;;;;;;12.02;100.00;102067.94;5008410;28;20041;-79
2022/01/01 07:04:56;;;;;;;30.23;8.93;;;;;;;12.09;100.00;102055.59;5000926;28;20569;-81
2022/01/01 07:07:21;;;;;;;17.40;5.72;;;;;;;12.04;100.00;102063.25;5016526;28;20386;-81
2022/01/01 07:09:47;;;;;;;24.60;6.13;;;;;;;11.96;100.00;102055.50;5032828;28;20026;-81
2022/01/01 07:12:12;;;;;;;26.25;6.55;;;;;;;11.85;100.00;102061.66;5005850;28;20026;-81
2022/01/01 07:14:38;;;;;;;23.10;6.22;;;;;;;11.78;100.00;102069.41;5009886;28;20550;-81
2022/01/01 07:17:03;;;;;;;25.17;6.88;;;;;;;11.84;100.00;102072.72;5020934;28;20398;-81
2022/01/01 07:19:29;;;;;;;24.73;6.72;;;;;;;11.86;100.00;102073.53;5025405;28;20041;-82
2022/01/01 07:21:59;;;;;;;30.83;5.80;;;;;;;12.01;100.00;102079.91;5015173;28;20133;-81
2022/01/01 07:24:25;;;;;;;19.63;5.43;;;;;;;11.90;100.00;102081.47;4996290;28;20045;-81
2022/01/01 07:26:51;;;;;;;23.45;5.43;;;;;;;11.90;100.00;102081.47;5004470;28;20085;-81
2022/01/01 07:29:16;;;;;;;28.23;5.75;;;;;;;11.92;100.00;102090.50;5005364;28;20030;-80
2022/01/01 07:31:41;;;;;;;19.20;5.72;;;;;;;11.86;100.00;102088.13;5013231;28;20114;-80
2022/01/01 07:34:07;;;;;;;26.27;5.05;;;;;;;11.91;100.00;102094.22;5015331;28;20057;-81
2022/01/01 07:36:32;;;;;;;27.33;5.93;;;;;;;11.83;100.00;102080.09;4995165;28;20042;-80
2022/01/01 07:38:58;;;;;;;15.05;5.32;;;;;;;11.85;100.00;102085.47;5016281;28;20046;-80
2022/01/01 07:41:23;;;;;;;28.08;5.35;;;;;;;11.90;100.00;102083.31;5002460;28;20046;-80
2022/01/01 07:43:48;;;;;;;20.73;5.80;;;;;;;11.90;100.00;102084.22;4998676;28;20470;-80
2022/01/01 07:46:14;;;;;;;28.27;5.88;;;;;;;11.88;100.00;102085.28;4985091;28;20030;-79
2022/01/01 07:48:39;;;;;;;18.73;4.78;;;;;;;11.84;100.00;102083.69;5009765;28;20036;-79
2022/01/01 07:51:05;;;;;;;19.85;5.75;;;;;;;11.86;100.00;102093.63;4999424;28;20035;-80
2022/01/01 07:53:30;;;;;;;18.42;5.32;;;;;;;11.84;100.00;102084.59;4999384;28;20035;-79
2022/01/01 07:55:56;;;;;;;23.08;5.50;;;;;;;11.86;100.00;102077.16;4981251;28;20233;-79
2022/01/01 07:58:21;;;;;;;25.95;6.00;;;;;;;11.89;100.00;102090.66;5004220;28;20113;-80
2022/01/01 08:00:47;;;;;;;25.10;5.93;;;;;;;11.83;100.00;102095.69;5002273;28;20101;-80
2022/01/01 08:03:13;;;;;;;15.13;4.90;;;;;;;11.84;100.00;102086.44;4993198;28;20039;-80
2022/01/01 08:05:39;;;;;;;17.17;5.50;;;;;;;11.86;100.00;102092.75;4993508;28;20034;-80
2022/01/01 08:08:05;;;;;;;20.00;5.50;;;;;;;11.82;100.00;102094.78;5011567;28;20030;-79
2022/01/01 08:10:31;;;;;;;21.23;5.53;;;;;;;11.83;100.00;102109.41;5003116;28;20385;-81
2022/01/01 08:12:56;;;;;;;25.80;6.18;;;;;;;11.80;100.00;102104.09;5004371;28;20185;-80
2022/01/01 08:15:23;;;;;;;19.05;4.97;;;;;;;11.82;100.00;102104.88;5007872;28;20081;-80
2022/01/01 08:17:48;;;;;;;17.20;5.28;;;;;;;11.81;100.00;102109.50;5013806;28;20488;-80
2022/01/01 08:20:14;;;;;;;15.88;4.95;;;;;;;11.84;100.00;102103.81;5000162;28;20034;-81
2022/01/01 08:22:39;;;;;;;19.05;5.05;;;;;;;11.83;100.00;102091.06;4998694;28;20133;-80
2022/01/01 08:25:06;;;;;;;16.60;5.32;;;;;;;11.85;100.00;102099.19;4994533;28;20032;-80
2022/01/01 08:27:31;;;;;;;18.00;5.22;;;;;;;11.87;100.00;102095.38;5007426;28;20038;-81
2022/01/01 08:29:57;;;;;;;20.50;4.95;;;;;;;11.83;100.00;102090.19;5000513;28;20371;-80
2022/01/01 08:32:23;;;;;;;27.55;6.03;;;;;;;11.84;100.00;102087.34;5018411;28;20042;-80
2022/01/01 08:34:48;;;;;;;23.50;6.10;;;;;;;11.84;100.00;102084.59;5012300;28;20536;-80
2022/01/01 08:37:14;;;;;;;24.73;5.45;;;;;;;11.87;100.00;102091.75;4999848;28;20125;-80
2022/01/01 08:39:39;;;;;;;25.63;6.85;;;;;;;11.86;100.00;102087.25;5016774;28;20038;-80
2022/01/01 08:42:09;;;;;;;22.73;6.03;;;;;;;11.88;100.00;102097.13;5003388;28;20037;-81
2022/01/01 08:44:35;;;;;;;17.75;5.82;;;;;;;11.91;100.00;102088.72;5019388;28;20044;-80
2022/01/01 08:47:00;;;;;;;13.88;5.97;;;;;;;11.89;100.00;102089.81;5019002;28;20021;-80
2022/01/01 08:49:26;;;;;;;18.38;6.88;;;;;;;11.91;100.00;102096.06;5004992;28;20101;-81
2022/01/01 08:51:55;;;;;;;27.00;6.75;;;;;;;11.92;100.00;102097.84;5001007;28;20030;-80
2022/01/01 08:54:21;;;;;;;23.20;6.57;;;;;;;11.91;100.00;102099.72;4987664;28;20038;-80
2022/01/01 08:56:46;;;;;;;27.42;7.60;;;;;;;11.93;100.00;102097.75;5008827;28;20026;-80
2022/01/01 08:59:12;;;;;;;20.20;7.10;;;;;;;11.98;100.00;102099.31;5002678;28;20030;-80
2022/01/01 09:01:38;;;;;;;18.90;5.88;;;;;;;11.98;100.00;102105.69;5000236;28;20046;-81
2022/01/01 09:04:05;;;;;;;18.40;6.18;;;;;;;11.90;100.00;102097.94;5002144;28;20045;-81
2022/01/01 09:06:31;;;;;;;28.17;7.13;;;;;;;11.98;100.00;102100.19;5002041;28;20034;-81
2022/01/01 09:08:57;;;;;;;18.83;6.57;;;;;;;11.99;100.00;102104.72;5012227;28;20036;-81
2022/01/01 09:11:23;;;;;;;20.15;6.53;;;;;;;12.01;100.00;102101.88;5019318;28;20037;-81
2022/01/01 09:13:49;;;;;;;18.40;6.53;;;;;;;11.99;100.00;102101.09;5001975;28;20051;-81
2022/01/01 09:16:16;;;;;;;18.75;6.70;;;;;;;11.95;100.00;102084.81;5001754;28;20030;-81
2022/01/01 09:18:43;;;;;;;23.38;7.35;;;;;;;11.95;100.00;102084.81;5014971;28;20115;-80
2022/01/01 09:21:09;;;;;;;18.05;6.80;;;;;;;11.98;100.00;102075.50;5023632;28;20037;-80
2022/01/01 09:23:35;;;;;;;19.77;7.00;;;;;;;12.04;100.00;102082.47;5017776;28;20050;-81
2022/01/01 09:26:01;;;;;;;21.40;6.93;;;;;;;12.05;100.00;102081.47;4998846;28;20036;-81
2022/01/01 09:28:31;;;;;;;21.25;6.63;;;;;;;12.00;100.00;102083.63;5008644;28;20057;-82
2022/01/01 09:30:59;;;;;;;21.92;7.13;;;;;;;12.12;100.00;102091.94;5010707;28;20122;-82
2022/01/01 09:33:29;;;;;;;26.10;7.50;;;;;;;12.08;100.00;102084.00;5019789;28;20029;-82
2022/01/01 09:35:58;;;;;;;22.50;7.22;;;;;;;12.09;100.00;102091.28;5020406;28;20033;-82
2022/01/01 09:38:24;;;;;;;15.93;6.53;;;;;;;12.05;100.00;102086.94;5018223;28;20621;-81
2022/01/01 09:40:53;;;;;;;20.88;7.45;;;;;;;12.07;100.00;102094.13;5018798;28;20071;-82
2022/01/01 09:43:21;;;;;;;21.90;7.53;;;;;;;12.11;100.00;102092.03;5013477;28;20050;-82
2022/01/01 09:45:49;;;;;;;19.40;7.25;;;;;;;12.07;100.00;102096.00;4999818;28;20436;-82
2022/01/01 09:48:18;;;;;;;21.58;7.00;;;;;;;12.14;100.00;102108.31;5006831;28;20085;-81
2022/01/01 09:50:46;;;;;;;15.48;6.40;;;;;;;12.16;100.00;102091.75;5003725;28;20033;-83
2022/01/01 09:53:11;;;;;;;16.90;6.35;;;;;;;12.16;100.00;102078.88;5002948;28;20068;-80
2022/01/01 09:55:37;;;;;;;21.10;7.40;;;;;;;12.19;100.00;102081.44;5017025;28;20030;-80
2022/01/01 09:58:02;;;;;;;24.77;8.63;;;;;;;12.18;100.00;102084.28;4999575;28;20202;-78
2022/01/01 10:00:28;;;;;;;26.10;8.35;;;;;;;12.25;100.00;102089.28;4997265;28;20053;-79
2022/01/01 10:02:53;;;;;;;26.95;8.77;;;;;;;12.16;100.00;102089.88;5009400;28;20050;-80
2022/01/01 10:05:19;;;;;;;18.75;8.73;;;;;;;12.12;100.00;102086.44;4982174;28;20451;-79
2022/01/01 10:07:44;;;;;;;17.88;7.30;;;;;;;12.12;100.00;102078.22;4992057;28;20049;-80
2022/01/01 10:10:25;;;;;;;21.70;9.02;;;;;;;12.13;100.00;102070.84;5024028;28;20050;-80
2022/01/01 10:12:52;;;;;;;22.15;7.90;;;;;;;12.23;100.00;102076.63;5028189;28;20081;-80
2022/01/01 10:15:18;;;;;;;22.77;8.18;;;;;;;12.21;100.00;102073.97;5018846;28;20049;-80
2022/01/01 10:17:44;;;;;;;23.13;8.73;;;;;;;12.17;100.00;102066.03;5006952;28;20053;-80
2022/01/01 10:20:10;;;;;;;19.15;7.82;;;;;;;12.15;100.00;102063.41;5015252;28;20054;-81
2022/01/01 10:22:37;;;;;;;18.25;7.68;;;;;;;12.22;100.00;102063.88;5012313;28;20343;-80
2022/01/01 10:27:58;;;;;;;20.42;8.60;;;;;;;12.29;100.00;102060.59;5010357;28;20040;-80
2022/01/01 10:30:34;;;;;;;19.60;7.90;;;;;;;12.31;100.00;102052.25;4996779;28;20065;-81
2022/01/01 10:33:11;;;;;;;19.40;8.57;;;;;;;12.36;100.00;102051.97;5017289;28;20050;-81
2022/01/01 10:35:44;;;;;;;20.13;8.07;;;;;;;12.32;100.00;102041.19;5002109;28;20065;-80
2022/01/01 10:38:14;;;;;;;;;;;;;;;12.34;100.00;102034.72;4996705;28;20486;-79
2022/01/01 10:40:40;;;;;;;21.83;8.05;;;;;;;12.41;100.00;102036.03;5002651;28;19920;-79
2022/01/01 10:43:05;;;;;;;22.30;8.50;;;;;;;12.46;100.00;102026.53;5015617;28;20054;-81
2022/01/01 10:45:37;;;;;;;23.23;8.70;;;;;;;12.54;100.00;102031.47;5015023;28;20053;-80
2022/01/01 10:48:41;;;;;;;20.37;8.13;;;;;;;12.64;100.00;102016.13;5007345;28;20037;-79
2022/01/01 10:51:10;;;;;;;24.83;8.60;;;;;;;12.57;100.00;102005.66;4999324;28;20042;-79
2022/01/01 10:53:37;;;;;;;19.38;7.80;;;;;;;12.65;100.00;102004.13;4995034;28;20038;-79
2022/01/01 10:56:15;;;;;;;30.33;8.70;;;;;;;12.79;100.00;102005.03;4997418;28;20084;-80
2022/01/01 10:58:42;;;;;;;16.33;7.90;;;;;;;12.90;100.00;101999.66;5015202;28;20053;-79
2022/01/01 11:01:09;;;;;;;24.85;8.55;;;;;;;13.13;100.00;102002.66;5008821;28;20484;-79
2022/01/01 11:03:39;;;;;;;24.17;7.85;;;;;;;12.91;100.00;102012.44;4985766;28;20042;-79
2022/01/01 11:06:12;;;;;;;17.23;8.77;;;;;;;12.92;100.00;102008.72;5004206;28;20030;-79